sensor_id;sensor_type;location;lat;lon;timestamp;pressure;altitude;pressure_sealevel;temperature;humidity
60832;BME280;46665;51.558;-0.448;2022-11-23T00:00:58;98802.31;;;2.39;100.00
60832;BME280;46665;51.558;-0.448;2022-11-23T00:03:44;98803.94;;;2.41;100.00
60832;BME280;46665;51.558;-0.448;2022-11-23T00:06:29;98798.56;;;2.46;100.00
60832;BME280;46665;51.558;-0.448;2022-11-23T00:09:13;98791.00;;;2.53;100.00
60832;BME280;46665;51.558;-0.448;2022-11-23T00:11:57;98794.50;;;2.58;100.00
60832;BME280;46665;51.558;-0.448;2022-11-23T00:14:41;98786.94;;;2.60;100.00
60832;BME280;46665;51.558;-0.448;2022-11-23T00:17:25;98792.06;;;2.62;100.00
60832;BME280;46665;51.558;-0.448;2022-11-23T00:20:09;98786.41;;;2.64;100.00
60832;BME280;46665;51.558;-0.448;2022-11-23T00:22:53;98784.78;;;2.68;100.00
60832;BME280;46665;51.558;-0.448;2022-11-23T00:25:37;98791.50;;;2.65;100.00
60832;BME280;46665;51.558;-0.448;2022-11-23T00:28:21;98791.81;;;2.58;100.00
60832;BME280;46665;51.558;-0.448;2022-11-23T00:31:06;98787.78;;;2.56;100.00
60832;BME280;46665;51.558;-0.448;2022-11-23T00:33:52;98782.69;;;2.49;100.00
60832;BME280;46665;51.558;-0.448;2022-11-23T00:36:36;98784.06;;;2.42;100.00
60832;BME280;46665;51.558;-0.448;2022-11-23T00:39:20;98779.78;;;2.35;100.00
60832;BME280;46665;51.558;-0.448;2022-11-23T00:42:04;98776.03;;;2.31;100.00
60832;BME280;46665;51.558;-0.448;2022-11-23T00:44:48;98777.09;;;2.30;100.00
60832;BME280;46665;51.558;-0.448;2022-11-23T00:47:32;98770.94;;;2.25;100.00
60832;BME280;46665;51.558;-0.448;2022-11-23T00:50:16;98763.69;;;2.25;100.00
60832;BME280;46665;51.558;-0.448;2022-11-23T00:53:00;98767.72;;;2.23;100.00
60832;BME280;46665;51.558;-0.448;2022-11-23T00:55:52;98765.88;;;2.23;100.00
60832;BME280;46665;51.558;-0.448;2022-11-23T00:58:36;98765.34;;;2.21;100.00
60832;BME280;46665;51.558;-0.448;2022-11-23T01:01:26;98773.41;;;2.16;100.00
60832;BME280;46665;51.558;-0.448;2022-11-23T01:04:10;98765.91;;;2.08;100.00
60832;BME280;46665;51.558;-0.448;2022-11-23T01:06:55;98764.56;;;2.00;100.00
60832;BME280;46665;51.558;-0.448;2022-11-23T01:09:40;98770.19;;;1.99;100.00
60832;BME280;46665;51.558;-0.448;2022-11-23T01:12:24;98762.13;;;2.04;100.00
60832;BME280;46665;51.558;-0.448;2022-11-23T01:15:08;98764.00;;;2.08;100.00
60832;BME280;46665;51.558;-0.448;2022-11-23T01:17:52;98758.34;;;2.20;100.00
60832;BME280;46665;51.558;-0.448;2022-11-23T01:20:36;98745.97;;;2.29;100.00
60832;BME280;46665;51.558;-0.448;2022-11-23T01:23:20;98751.88;;;2.31;100.00
60832;BME280;46665;51.558;-0.448;2022-11-23T01:26:08;98736.03;;;2.35;100.00
60832;BME280;46665;51.558;-0.448;2022-11-23T01:28:53;98741.66;;;2.38;100.00
60832;BME280;46665;51.558;-0.448;2022-11-23T01:31:37;98731.44;;;2.35;100.00
60832;BME280;46665;51.558;-0.448;2022-11-23T01:34:22;98729.06;;;2.34;100.00
60832;BME280;46665;51.558;-0.448;2022-11-23T01:37:06;98724.75;;;2.33;100.00
60832;BME280;46665;51.558;-0.448;2022-11-23T01:39:50;98725.03;;;2.31;100.00
60832;BME280;46665;51.558;-0.448;2022-11-23T01:45:42;98729.84;;;2.39;100.00
60832;BME280;46665;51.558;-0.448;2022-11-23T01:48:35;98707.28;;;2.46;100.00
60832;BME280;46665;51.558;-0.448;2022-11-23T01:51:25;98714.22;;;2.52;100.00
60832;BME280;46665;51.558;-0.448;2022-11-23T01:54:21;98715.78;;;2.58;100.00
60832;BME280;46665;51.558;-0.448;2022-11-23T01:57:12;98712.28;;;2.63;100.00
60832;BME280;46665;51.558;-0.448;2022-11-23T01:59:57;98712.31;;;2.57;100.00
60832;BME280;46665;51.558;-0.448;2022-11-23T02:02:52;98695.13;;;2.64;100.00
60832;BME280;46665;51.558;-0.448;2022-11-23T02:05:42;98698.88;;;2.63;100.00
60832;BME280;46665;51.558;-0.448;2022-11-23T02:08:27;98684.63;;;2.67;100.00
60832;BME280;46665;51.558;-0.448;2022-11-23T02:11:13;98697.59;;;2.50;100.00
60832;BME280;46665;51.558;-0.448;2022-11-23T02:13:58;98667.50;;;2.53;100.00
60832;BME280;46665;51.558;-0.448;2022-11-23T02:16:42;98664.81;;;2.53;100.00
60832;BME280;46665;51.558;-0.448;2022-11-23T02:20:09;98661.59;;;2.56;100.00
60832;BME280;46665;51.558;-0.448;2022-11-23T02:26:08;98656.28;;;2.46;100.00
60832;BME280;46665;51.558;-0.448;2022-11-23T02:31:45;98639.72;;;2.28;100.00
60832;BME280;46665;51.558;-0.448;2022-11-23T02:34:29;98645.38;;;2.22;100.00
60832;BME280;46665;51.558;-0.448;2022-11-23T02:37:13;98636.81;;;2.14;100.00
60832;BME280;46665;51.558;-0.448;2022-11-23T02:40:00;98628.50;;;2.11;100.00
60832;BME280;46665;51.558;-0.448;2022-11-23T02:42:47;98627.44;;;2.07;100.00
60832;BME280;46665;51.558;-0.448;2022-11-23T02:45:38;98618.38;;;1.98;100.00
60832;BME280;46665;51.558;-0.448;2022-11-23T02:48:26;98618.09;;;1.94;100.00
60832;BME280;46665;51.558;-0.448;2022-11-23T02:51:10;98631.53;;;1.89;100.00
60832;BME280;46665;51.558;-0.448;2022-11-23T02:53:53;98622.44;;;1.80;100.00
60832;BME280;46665;51.558;-0.448;2022-11-23T02:56:37;98613.34;;;1.76;100.00
60832;BME280;46665;51.558;-0.448;2022-11-23T02:59:21;98607.44;;;1.73;100.00
60832;BME280;46665;51.558;-0.448;2022-11-23T03:02:06;98599.69;;;1.67;100.00
60832;BME280;46665;51.558;-0.448;2022-11-23T03:04:50;98604.28;;;1.56;100.00
60832;BME280;46665;51.558;-0.448;2022-11-23T03:07:34;98601.06;;;1.44;100.00
60832;BME280;46665;51.558;-0.448;2022-11-23T03:10:18;98591.16;;;1.39;100.00
60832;BME280;46665;51.558;-0.448;2022-11-23T03:13:03;98593.84;;;1.39;100.00
60832;BME280;46665;51.558;-0.448;2022-11-23T03:15:47;98585.28;;;1.42;100.00
60832;BME280;46665;51.558;-0.448;2022-11-23T03:18:31;98579.63;;;1.49;100.00
60832;BME280;46665;51.558;-0.448;2022-11-23T03:21:15;98576.16;;;1.43;100.00
60832;BME280;46665;51.558;-0.448;2022-11-23T03:23:59;98578.28;;;1.41;100.00
60832;BME280;46665;51.558;-0.448;2022-11-23T03:26:42;98573.72;;;1.42;100.00
60832;BME280;46665;51.558;-0.448;2022-11-23T03:29:27;98568.66;;;1.45;100.00
60832;BME280;46665;51.558;-0.448;2022-11-23T03:32:11;98562.19;;;1.46;100.00
60832;BME280;46665;51.558;-0.448;2022-11-23T03:34:55;98560.59;;;1.45;100.00
60832;BME280;46665;51.558;-0.448;2022-11-23T03:37:39;98554.69;;;1.48;100.00
60832;BME280;46665;51.558;-0.448;2022-11-23T03:40:23;98551.22;;;1.53;100.00
60832;BME280;46665;51.558;-0.448;2022-11-23T03:43:06;98549.84;;;1.56;100.00
60832;BME280;46665;51.558;-0.448;2022-11-23T03:45:51;98543.97;;;1.54;100.00
60832;BME280;46665;51.558;-0.448;2022-11-23T03:48:34;98537.00;;;1.52;100.00
60832;BME280;46665;51.558;-0.448;2022-11-23T03:51:18;98540.75;;;1.46;100.00
60832;BME280;46665;51.558;-0.448;2022-11-23T03:54:02;98528.44;;;1.45;100.00
60832;BME280;46665;51.558;-0.448;2022-11-23T03:56:46;98537.31;;;1.41;100.00
60832;BME280;46665;51.558;-0.448;2022-11-23T03:59:30;98536.50;;;1.35;100.00
60832;BME280;46665;51.558;-0.448;2022-11-23T04:02:14;98528.22;;;1.26;100.00
60832;BME280;46665;51.558;-0.448;2022-11-23T04:04:58;98538.69;;;1.28;100.00
60832;BME280;46665;51.558;-0.448;2022-11-23T04:07:42;98535.47;;;1.26;100.00
60832;BME280;46665;51.558;-0.448;2022-11-23T04:10:26;98538.69;;;1.23;100.00
60832;BME280;46665;51.558;-0.448;2022-11-23T04:13:10;98522.63;;;1.18;100.00
60832;BME280;46665;51.558;-0.448;2022-11-23T04:15:54;98522.09;;;1.16;100.00
60832;BME280;46665;51.558;-0.448;2022-11-23T04:18:38;98510.31;;;1.12;100.00
60832;BME280;46665;51.558;-0.448;2022-11-23T04:21:23;98506.56;;;1.13;100.00
60832;BME280;46665;51.558;-0.448;2022-11-23T04:24:07;98508.69;;;1.11;100.00
60832;BME280;46665;51.558;-0.448;2022-11-23T04:26:51;98497.19;;;1.10;100.00
60832;BME280;46665;51.558;-0.448;2022-11-23T04:29:35;98495.31;;;1.05;100.00
60832;BME280;46665;51.558;-0.448;2022-11-23T04:32:19;98499.09;;;1.04;100.00
60832;BME280;46665;51.558;-0.448;2022-11-23T04:35:03;98491.31;;;1.03;100.00
60832;BME280;46665;51.558;-0.448;2022-11-23T04:37:47;98489.19;;;1.00;100.00
60832;BME280;46665;51.558;-0.448;2022-11-23T04:40:31;98479.56;;;0.99;100.00
60832;BME280;46665;51.558;-0.448;2022-11-23T04:43:15;98480.88;;;1.01;100.00
60832;BME280;46665;51.558;-0.448;2022-11-23T04:45:59;98475.78;;;1.00;100.00
60832;BME280;46665;51.558;-0.448;2022-11-23T04:48:43;98469.63;;;1.04;100.00
60832;BME280;46665;51.558;-0.448;2022-11-23T04:51:27;98447.88;;;1.11;100.00
60832;BME280;46665;51.558;-0.448;2022-11-23T04:54:11;98454.56;;;1.19;100.00
60832;BME280;46665;51.558;-0.448;2022-11-23T04:56:55;98436.84;;;1.28;100.00
60832;BME280;46665;51.558;-0.448;2022-11-23T04:59:40;98440.88;;;1.30;100.00
60832;BME280;46665;51.558;-0.448;2022-11-23T05:02:24;98451.59;;;1.30;100.00
60832;BME280;46665;51.558;-0.448;2022-11-23T05:05:08;98458.03;;;1.29;100.00
60832;BME280;46665;51.558;-0.448;2022-11-23T05:07:52;98448.09;;;1.30;100.00
60832;BME280;46665;51.558;-0.448;2022-11-23T05:10:36;98462.03;;;1.37;100.00
60832;BME280;46665;51.558;-0.448;2022-11-23T05:13:21;98451.78;;;1.49;100.00
60832;BME280;46665;51.558;-0.448;2022-11-23T05:16:06;98447.72;;;1.62;100.00
60832;BME280;46665;51.558;-0.448;2022-11-23T05:18:50;98436.38;;;1.76;100.00
60832;BME280;46665;51.558;-0.448;2022-11-23T05:21:34;98433.84;;;1.89;100.00
60832;BME280;46665;51.558;-0.448;2022-11-23T05:24:18;98429.25;;;2.00;100.00
60832;BME280;46665;51.558;-0.448;2022-11-23T05:27:02;98435.88;;;2.13;100.00
60832;BME280;46665;51.558;-0.448;2022-11-23T05:29:46;98432.06;;;2.19;100.00
60832;BME280;46665;51.558;-0.448;2022-11-23T05:32:30;98427.69;;;2.28;100.00
60832;BME280;46665;51.558;-0.448;2022-11-23T05:35:14;98428.16;;;2.35;100.00
60832;BME280;46665;51.558;-0.448;2022-11-23T05:37:58;98416.56;;;2.40;100.00
60832;BME280;46665;51.558;-0.448;2022-11-23T05:40:44;98407.97;;;2.43;100.00
60832;BME280;46665;51.558;-0.448;2022-11-23T05:43:29;98401.75;;;2.48;100.00
60832;BME280;46665;51.558;-0.448;2022-11-23T05:46:13;98396.91;;;2.50;100.00
60832;BME280;46665;51.558;-0.448;2022-11-23T05:48:57;98390.69;;;2.54;100.00
60832;BME280;46665;51.558;-0.448;2022-11-23T05:51:41;98381.22;;;2.62;100.00
60832;BME280;46665;51.558;-0.448;2022-11-23T05:54:25;98378.47;;;2.67;100.00
60832;BME280;46665;51.558;-0.448;2022-11-23T05:57:09;98376.25;;;2.74;100.00
60832;BME280;46665;51.558;-0.448;2022-11-23T05:59:54;98365.97;;;2.81;100.00
60832;BME280;46665;51.558;-0.448;2022-11-23T06:02:38;98368.56;;;2.92;100.00
60832;BME280;46665;51.558;-0.448;2022-11-23T06:05:22;98360.66;;;3.00;100.00
60832;BME280;46665;51.558;-0.448;2022-11-23T06:08:05;98349.78;;;3.11;100.00
60832;BME280;46665;51.558;-0.448;2022-11-23T06:10:49;98342.09;;;3.23;100.00
60832;BME280;46665;51.558;-0.448;2022-11-23T06:13:33;98325.31;;;3.31;100.00
60832;BME280;46665;51.558;-0.448;2022-11-23T06:16:17;98314.66;;;3.45;100.00
60832;BME280;46665;51.558;-0.448;2022-11-23T06:19:01;98318.19;;;3.59;100.00
60832;BME280;46665;51.558;-0.448;2022-11-23T06:21:45;98305.41;;;3.70;100.00
60832;BME280;46665;51.558;-0.448;2022-11-23T06:24:29;98291.50;;;3.82;100.00
60832;BME280;46665;51.558;-0.448;2022-11-23T06:27:13;98295.63;;;3.93;100.00
60832;BME280;46665;51.558;-0.448;2022-11-23T06:30:00;98292.53;;;4.00;100.00
60832;BME280;46665;51.558;-0.448;2022-11-23T06:32:44;98282.69;;;4.09;100.00
60832;BME280;46665;51.558;-0.448;2022-11-23T06:35:28;98276.34;;;4.19;100.00
60832;BME280;46665;51.558;-0.448;2022-11-23T06:38:12;98270.78;;;4.29;100.00
60832;BME280;46665;51.558;-0.448;2022-11-23T06:40:57;98266.78;;;4.40;100.00
60832;BME280;46665;51.558;-0.448;2022-11-23T06:43:42;98256.63;;;4.51;100.00
60832;BME280;46665;51.558;-0.448;2022-11-23T06:46:26;98249.66;;;4.64;100.00
60832;BME280;46665;51.558;-0.448;2022-11-23T06:49:10;98239.75;;;4.73;100.00
60832;BME280;46665;51.558;-0.448;2022-11-23T06:51:54;98234.34;;;4.87;100.00
60832;BME280;46665;51.558;-0.448;2022-11-23T06:54:38;98226.84;;;4.97;100.00
60832;BME280;46665;51.558;-0.448;2022-11-23T06:57:22;98223.91;;;5.08;100.00
60832;BME280;46665;51.558;-0.448;2022-11-23T07:00:06;98219.28;;;5.22;100.00
60832;BME280;46665;51.558;-0.448;2022-11-23T07:02:52;98221.75;;;5.32;100.00
60832;BME280;46665;51.558;-0.448;2022-11-23T07:05:37;98221.50;;;5.42;100.00
60832;BME280;46665;51.558;-0.448;2022-11-23T07:08:21;98222.84;;;5.54;100.00
60832;BME280;46665;51.558;-0.448;2022-11-23T07:11:05;98212.16;;;5.71;100.00
60832;BME280;46665;51.558;-0.448;2022-11-23T07:13:50;98214.31;;;5.83;100.00
60832;BME280;46665;51.558;-0.448;2022-11-23T07:16:34;98199.06;;;5.87;100.00
60832;BME280;46665;51.558;-0.448;2022-11-23T07:19:17;98199.66;;;5.98;100.00
60832;BME280;46665;51.558;-0.448;2022-11-23T07:22:01;98202.09;;;6.08;100.00
60832;BME280;46665;51.558;-0.448;2022-11-23T07:24:45;98185.41;;;6.15;100.00
60832;BME280;46665;51.558;-0.448;2022-11-23T07:27:30;98194.25;;;6.38;100.00
60832;BME280;46665;51.558;-0.448;2022-11-23T07:30:15;98183.47;;;6.46;100.00
60832;BME280;46665;51.558;-0.448;2022-11-23T07:33:07;98178.56;;;6.57;100.00
60832;BME280;46665;51.558;-0.448;2022-11-23T07:35:51;98171.44;;;6.61;100.00
60832;BME280;46665;51.558;-0.448;2022-11-23T07:38:35;98165.72;;;6.71;100.00
60832;BME280;46665;51.558;-0.448;2022-11-23T07:41:19;98158.09;;;6.82;100.00
60832;BME280;46665;51.558;-0.448;2022-11-23T07:44:03;98145.41;;;6.91;100.00
60832;BME280;46665;51.558;-0.448;2022-11-23T07:46:47;98142.84;;;6.95;100.00
60832;BME280;46665;51.558;-0.448;2022-11-23T07:49:31;98135.84;;;6.94;100.00
60832;BME280;46665;51.558;-0.448;2022-11-23T07:52:15;98121.22;;;6.95;100.00
60832;BME280;46665;51.558;-0.448;2022-11-23T07:54:59;98102.59;;;7.02;100.00
60832;BME280;46665;51.558;-0.448;2022-11-23T07:57:44;98110.56;;;7.07;100.00
60832;BME280;46665;51.558;-0.448;2022-11-23T08:00:28;98111.19;;;7.13;100.00
60832;BME280;46665;51.558;-0.448;2022-11-23T08:03:13;98115.47;;;7.14;100.00
60832;BME280;46665;51.558;-0.448;2022-11-23T08:05:57;98113.41;;;7.20;100.00
60832;BME280;46665;51.558;-0.448;2022-11-23T08:08:41;98112.44;;;7.24;100.00
60832;BME280;46665;51.558;-0.448;2022-11-23T08:11:25;98105.59;;;7.27;100.00
60832;BME280;46665;51.558;-0.448;2022-11-23T08:14:09;98096.84;;;7.30;100.00
60832;BME280;46665;51.558;-0.448;2022-11-23T08:16:53;98080.91;;;7.37;100.00
60832;BME280;46665;51.558;-0.448;2022-11-23T08:19:37;98080.75;;;7.42;100.00
60832;BME280;46665;51.558;-0.448;2022-11-23T08:22:20;98075.16;;;7.47;100.00
60832;BME280;46665;51.558;-0.448;2022-11-23T08:25:05;98067.50;;;7.49;100.00
60832;BME280;46665;51.558;-0.448;2022-11-23T08:27:54;98052.22;;;7.53;100.00
60832;BME280;46665;51.558;-0.448;2022-11-23T08:30:38;98057.44;;;7.67;100.00
60832;BME280;46665;51.558;-0.448;2022-11-23T08:33:22;98052.28;;;7.74;100.00
60832;BME280;46665;51.558;-0.448;2022-11-23T08:36:07;98026.66;;;7.72;100.00
60832;BME280;46665;51.558;-0.448;2022-11-23T08:38:51;98029.44;;;7.93;100.00
60832;BME280;46665;51.558;-0.448;2022-11-23T08:41:37;98032.13;;;7.93;100.00
60832;BME280;46665;51.558;-0.448;2022-11-23T08:44:21;98025.53;;;8.02;100.00
60832;BME280;46665;51.558;-0.448;2022-11-23T08:47:05;98015.78;;;8.10;100.00
60832;BME280;46665;51.558;-0.448;2022-11-23T08:49:49;98020.19;;;8.15;100.00
60832;BME280;46665;51.558;-0.448;2022-11-23T08:52:33;98019.09;;;8.16;100.00
60832;BME280;46665;51.558;-0.448;2022-11-23T08:55:17;98004.22;;;8.22;100.00
60832;BME280;46665;51.558;-0.448;2022-11-23T08:58:01;97994.44;;;8.30;100.00
60832;BME280;46665;51.558;-0.448;2022-11-23T09:00:45;98001.13;;;8.32;100.00
60832;BME280;46665;51.558;-0.448;2022-11-23T09:03:29;98010.81;;;8.42;100.00
60832;BME280;46665;51.558;-0.448;2022-11-23T09:06:13;97996.25;;;8.46;100.00
60832;BME280;46665;51.558;-0.448;2022-11-23T09:08:57;98006.22;;;8.55;100.00
60832;BME280;46665;51.558;-0.448;2022-11-23T09:11:41;98019.97;;;8.71;100.00
60832;BME280;46665;51.558;-0.448;2022-11-23T09:14:25;98043.63;;;8.82;100.00
60832;BME280;46665;51.558;-0.448;2022-11-23T09:17:10;98066.91;;;8.83;100.00
60832;BME280;46665;51.558;-0.448;2022-11-23T09:19:54;98088.22;;;8.73;100.00
60832;BME280;46665;51.558;-0.448;2022-11-23T09:22:38;98105.34;;;8.64;100.00
60832;BME280;46665;51.558;-0.448;2022-11-23T09:25:22;98129.63;;;8.61;100.00
60832;BME280;46665;51.558;-0.448;2022-11-23T09:28:06;98141.91;;;8.58;100.00
60832;BME280;46665;51.558;-0.448;2022-11-23T09:30:50;98147.38;;;8.50;100.00
60832;BME280;46665;51.558;-0.448;2022-11-23T09:33:34;98159.53;;;8.43;100.00
60832;BME280;46665;51.558;-0.448;2022-11-23T09:36:18;98170.38;;;8.43;100.00
60832;BME280;46665;51.558;-0.448;2022-11-23T09:39:02;98164.47;;;8.41;100.00
60832;BME280;46665;51.558;-0.448;2022-11-23T09:51:18;98192.69;;;8.32;100.00
60832;BME280;46665;51.558;-0.448;2022-11-23T09:54:08;98208.34;;;8.26;100.00
60832;BME280;46665;51.558;-0.448;2022-11-23T09:56:55;98226.38;;;8.22;100.00
60832;BME280;46665;51.558;-0.448;2022-11-23T09:59:43;98223.81;;;8.17;100.00
60832;BME280;46665;51.558;-0.448;2022-11-23T10:02:31;98232.47;;;8.10;100.00
60832;BME280;46665;51.558;-0.448;2022-11-23T10:05:19;98235.63;;;8.12;100.00
60832;BME280;46665;51.558;-0.448;2022-11-23T10:08:14;98243.44;;;8.14;100.00
60832;BME280;46665;51.558;-0.448;2022-11-23T10:13:56;98262.41;;;8.14;100.00
60832;BME280;46665;51.558;-0.448;2022-11-23T10:17:36;98263.38;;;8.18;100.00
60832;BME280;46665;51.558;-0.448;2022-11-23T10:23:55;98291.06;;;8.23;100.00
60832;BME280;46665;51.558;-0.448;2022-11-23T10:26:43;98289.63;;;8.17;100.00
60832;BME280;46665;51.558;-0.448;2022-11-23T10:29:34;98304.44;;;8.20;100.00
60832;BME280;46665;51.558;-0.448;2022-11-23T10:32:30;98303.97;;;8.27;100.00
60832;BME280;46665;51.558;-0.448;2022-11-23T10:35:17;98309.88;;;8.20;100.00
60832;BME280;46665;51.558;-0.448;2022-11-23T10:38:14;98318.00;;;8.29;100.00
60832;BME280;46665;51.558;-0.448;2022-11-23T10:41:10;98321.31;;;8.34;100.00
60832;BME280;46665;51.558;-0.448;2022-11-23T10:46:44;98339.16;;;8.35;100.00
60832;BME280;46665;51.558;-0.448;2022-11-23T10:49:30;98351.47;;;8.41;100.00
60832;BME280;46665;51.558;-0.448;2022-11-23T10:52:28;98361.00;;;8.39;100.00
60832;BME280;46665;51.558;-0.448;2022-11-23T10:55:13;98363.22;;;8.45;100.00
60832;BME280;46665;51.558;-0.448;2022-11-23T10:57:57;98369.47;;;8.46;100.00
60832;BME280;46665;51.558;-0.448;2022-11-23T11:00:42;98386.97;;;8.57;100.00
60832;BME280;46665;51.558;-0.448;2022-11-23T11:03:31;98400.69;;;8.61;100.00
60832;BME280;46665;51.558;-0.448;2022-11-23T11:06:21;98385.97;;;8.71;100.00
60832;BME280;46665;51.558;-0.448;2022-11-23T11:09:18;98404.47;;;8.77;100.00
60832;BME280;46665;51.558;-0.448;2022-11-23T11:12:03;98413.69;;;8.85;100.00
60832;BME280;46665;51.558;-0.448;2022-11-23T11:17:57;98426.78;;;8.92;100.00
60832;BME280;46665;51.558;-0.448;2022-11-23T11:20:44;98427.88;;;8.90;100.00
60832;BME280;46665;51.558;-0.448;2022-11-23T11:23:29;98436.50;;;8.93;100.00
60832;BME280;46665;51.558;-0.448;2022-11-23T11:26:22;98431.84;;;8.93;100.00
60832;BME280;46665;51.558;-0.448;2022-11-23T11:29:46;98451.00;;;8.88;100.00
60832;BME280;46665;51.558;-0.448;2022-11-23T11:32:44;98437.75;;;8.95;100.00
60832;BME280;46665;51.558;-0.448;2022-11-23T11:35:34;98441.56;;;9.03;100.00
60832;BME280;46665;51.558;-0.448;2022-11-23T11:38:27;98451.00;;;8.97;100.00
60832;BME280;46665;51.558;-0.448;2022-11-23T11:41:15;98454.16;;;8.99;100.00
60832;BME280;46665;51.558;-0.448;2022-11-23T11:44:08;98459.41;;;9.04;100.00
60832;BME280;46665;51.558;-0.448;2022-11-23T11:47:00;98469.47;;;9.12;100.00
60832;BME280;46665;51.558;-0.448;2022-11-23T11:49:48;98455.56;;;9.14;100.00
60832;BME280;46665;51.558;-0.448;2022-11-23T11:52:36;98456.81;;;9.16;100.00
60832;BME280;46665;51.558;-0.448;2022-11-23T11:58:27;98472.63;;;9.23;100.00
60832;BME280;46665;51.558;-0.448;2022-11-23T12:01:31;98472.63;;;9.23;100.00
60832;BME280;46665;51.558;-0.448;2022-11-23T12:04:42;98497.34;;;9.30;100.00
60832;BME280;46665;51.558;-0.448;2022-11-23T12:07:34;98499.44;;;9.24;100.00
60832;BME280;46665;51.558;-0.448;2022-11-23T12:10:40;98501.50;;;9.27;100.00
60832;BME280;46665;51.558;-0.448;2022-11-23T12:13:31;98496.81;;;9.37;100.00
60832;BME280;46665;51.558;-0.448;2022-11-23T12:25:40;98505.53;;;9.60;100.00
60832;BME280;46665;51.558;-0.448;2022-11-23T12:31:33;98529.16;;;9.59;100.00
60832;BME280;46665;51.558;-0.448;2022-11-23T12:37:37;98532.50;;;9.65;100.00
60832;BME280;46665;51.558;-0.448;2022-11-23T12:47:11;98549.97;;;9.85;100.00
60832;BME280;46665;51.558;-0.448;2022-11-23T12:59:22;98561.19;;;9.74;100.00
60832;BME280;46665;51.558;-0.448;2022-11-23T13:21:22;98583.03;;;9.87;95.98
60832;BME280;46665;51.558;-0.448;2022-11-23T13:24:32;98581.94;;;9.79;94.12
60832;BME280;46665;51.558;-0.448;2022-11-23T13:30:08;98592.03;;;9.79;94.49
60832;BME280;46665;51.558;-0.448;2022-11-23T13:32:58;98593.41;;;9.85;93.80
60832;BME280;46665;51.558;-0.448;2022-11-23T13:38:35;98614.59;;;10.00;89.30
60832;BME280;46665;51.558;-0.448;2022-11-23T13:44:30;98629.81;;;10.01;89.07
60832;BME280;46665;51.558;-0.448;2022-11-23T13:47:19;98629.94;;;10.05;90.39
60832;BME280;46665;51.558;-0.448;2022-11-23T13:50:14;98638.56;;;10.07;88.93
60832;BME280;46665;51.558;-0.448;2022-11-23T13:53:00;98639.84;;;10.09;86.80
60832;BME280;46665;51.558;-0.448;2022-11-23T13:55:45;98644.34;;;10.05;87.09
60832;BME280;46665;51.558;-0.448;2022-11-23T13:58:35;98649.50;;;9.98;87.45
60832;BME280;46665;51.558;-0.448;2022-11-23T14:04:43;98651.44;;;9.89;88.63
60832;BME280;46665;51.558;-0.448;2022-11-23T14:07:40;98643.75;;;9.91;88.32
60832;BME280;46665;51.558;-0.448;2022-11-23T14:10:29;98638.63;;;9.98;86.27
60832;BME280;46665;51.558;-0.448;2022-11-23T14:13:21;98639.41;;;9.98;87.12
60832;BME280;46665;51.558;-0.448;2022-11-23T14:16:10;98640.19;;;9.99;86.63
60832;BME280;46665;51.558;-0.448;2022-11-23T14:19:07;98646.72;;;10.07;84.94
60832;BME280;46665;51.558;-0.448;2022-11-23T14:22:32;98643.16;;;10.15;85.22
60832;BME280;46665;51.558;-0.448;2022-11-23T14:43:11;98669.66;;;10.27;83.27
60832;BME280;46665;51.558;-0.448;2022-11-23T14:46:00;98656.25;;;10.22;84.58
60832;BME280;46665;51.558;-0.448;2022-11-23T14:48:46;98665.84;;;10.19;86.39
60832;BME280;46665;51.558;-0.448;2022-11-23T14:51:32;98680.41;;;10.14;86.33
60832;BME280;46665;51.558;-0.448;2022-11-23T14:54:18;98674.38;;;10.09;88.38
60832;BME280;46665;51.558;-0.448;2022-11-23T14:57:02;98690.56;;;9.96;91.77
60832;BME280;46665;51.558;-0.448;2022-11-23T14:59:58;98707.84;;;9.83;94.53
60832;BME280;46665;51.558;-0.448;2022-11-23T15:02:43;98738.53;;;9.66;100.00
60832;BME280;46665;51.558;-0.448;2022-11-23T15:05:31;98736.50;;;9.20;100.00
60832;BME280;46665;51.558;-0.448;2022-11-23T15:08:22;98744.22;;;8.78;100.00
60832;BME280;46665;51.558;-0.448;2022-11-23T15:11:19;98739.31;;;8.40;100.00
60832;BME280;46665;51.558;-0.448;2022-11-23T15:14:19;98741.09;;;8.13;100.00
60832;BME280;46665;51.558;-0.448;2022-11-23T15:17:17;98739.72;;;7.93;100.00
60832;BME280;46665;51.558;-0.448;2022-11-23T15:20:02;98742.47;;;7.79;100.00
60832;BME280;46665;51.558;-0.448;2022-11-23T15:22:48;98739.44;;;7.72;100.00
60832;BME280;46665;51.558;-0.448;2022-11-23T15:25:32;98742.88;;;7.64;100.00
60832;BME280;46665;51.558;-0.448;2022-11-23T15:28:17;98745.81;;;7.54;100.00
60832;BME280;46665;51.558;-0.448;2022-11-23T15:34:15;98749.09;;;7.42;100.00
60832;BME280;46665;51.558;-0.448;2022-11-23T15:36:59;98755.91;;;7.40;100.00
60832;BME280;46665;51.558;-0.448;2022-11-23T15:39:44;98765.84;;;7.30;100.00
60832;BME280;46665;51.558;-0.448;2022-11-23T15:42:28;98775.38;;;7.28;100.00
60832;BME280;46665;51.558;-0.448;2022-11-23T15:45:32;98776.59;;;7.22;100.00
60832;BME280;46665;51.558;-0.448;2022-11-23T15:48:33;98784.84;;;7.16;100.00
60832;BME280;46665;51.558;-0.448;2022-11-23T15:51:24;98776.78;;;7.11;100.00
60832;BME280;46665;51.558;-0.448;2022-11-23T15:54:25;98786.63;;;7.07;100.00
60832;BME280;46665;51.558;-0.448;2022-11-23T15:57:18;98802.97;;;7.02;100.00
60832;BME280;46665;51.558;-0.448;2022-11-23T16:00:05;98801.16;;;6.98;100.00
60832;BME280;46665;51.558;-0.448;2022-11-23T16:02:50;98794.84;;;6.88;100.00
60832;BME280;46665;51.558;-0.448;2022-11-23T16:05:34;98804.69;;;6.84;100.00
60832;BME280;46665;51.558;-0.448;2022-11-23T16:08:23;98804.97;;;6.83;100.00
60832;BME280;46665;51.558;-0.448;2022-11-23T16:11:42;98828.72;;;6.86;100.00
60832;BME280;46665;51.558;-0.448;2022-11-23T16:14:28;98834.72;;;6.83;100.00
60832;BME280;46665;51.558;-0.448;2022-11-23T16:17:17;98836.81;;;6.86;100.00
60832;BME280;46665;51.558;-0.448;2022-11-23T16:20:03;98837.44;;;6.97;100.00
60832;BME280;46665;51.558;-0.448;2022-11-23T16:22:57;98835.63;;;6.92;100.00
60832;BME280;46665;51.558;-0.448;2022-11-23T16:25:42;98837.22;;;6.93;100.00
60832;BME280;46665;51.558;-0.448;2022-11-23T16:28:29;98832.44;;;6.90;100.00
60832;BME280;46665;51.558;-0.448;2022-11-23T16:31:34;98836.63;;;6.96;100.00